createdAt,value
2023-04-16T00:02:30.063Z,14.45
2023-04-16T00:04:57.101Z,12.25
2023-04-16T00:07:24.320Z,14.02
2023-04-16T00:09:52.713Z,11.55
2023-04-16T00:12:19.939Z,14.05
2023-04-16T00:14:47.047Z,16.70
2023-04-16T00:17:14.260Z,12.85
2023-04-16T00:19:41.117Z,14.95
2023-04-16T00:22:08.673Z,12.02
2023-04-16T00:24:35.511Z,13.82
2023-04-16T00:27:04.062Z,12.35
2023-04-16T00:29:32.202Z,12.00
2023-04-16T00:31:59.352Z,13.55
2023-04-16T00:34:26.407Z,12.05
2023-04-16T00:36:53.545Z,13.90
2023-04-16T00:39:20.647Z,11.48
2023-04-16T00:41:47.670Z,11.07
2023-04-16T00:44:16.201Z,15.82
2023-04-16T00:46:44.118Z,12.45
2023-04-16T00:49:13.193Z,13.38
2023-04-16T00:51:40.189Z,12.25
2023-04-16T00:54:07.285Z,10.98
2023-04-16T00:56:35.945Z,13.68
2023-04-16T00:59:03.107Z,11.02
2023-04-16T01:01:31.844Z,11.98
2023-04-16T01:03:59.516Z,11.52
2023-04-16T01:06:27.457Z,13.70
2023-04-16T01:08:55.237Z,12.13
2023-04-16T01:11:24.792Z,14.10
2023-04-16T01:13:51.996Z,11.10
2023-04-16T01:16:19.055Z,13.95
2023-04-16T01:18:47.652Z,12.57
2023-04-16T01:21:15.949Z,14.50
2023-04-16T01:23:43.543Z,12.60
2023-04-16T01:26:10.788Z,12.07
2023-04-16T01:28:37.859Z,12.85
2023-04-16T01:31:05.096Z,13.65
2023-04-16T01:33:52.507Z,14.60
2023-04-16T01:36:20.789Z,14.20
2023-04-16T01:38:47.905Z,13.57
2023-04-16T01:41:15.268Z,15.98
2023-04-16T01:43:42.121Z,14.73
2023-04-16T01:46:15.422Z,15.50
2023-04-16T01:48:42.898Z,15.70
2023-04-16T01:51:09.775Z,14.02
2023-04-16T01:53:38.551Z,16.65
2023-04-16T01:56:06.907Z,15.70
2023-04-16T01:58:33.894Z,14.98
2023-04-16T02:01:01.366Z,16.60
2023-04-16T02:03:28.786Z,14.30
2023-04-16T02:05:56.270Z,14.45
2023-04-16T02:08:24.000Z,15.52
2023-04-16T02:10:52.970Z,12.82
2023-04-16T02:13:20.172Z,14.52
2023-04-16T02:15:49.752Z,14.82
2023-04-16T02:18:22.218Z,13.80
2023-04-16T02:20:49.968Z,13.05
2023-04-16T02:23:18.120Z,13.18
2023-04-16T02:25:47.474Z,12.48
2023-04-16T02:28:17.695Z,12.93
2023-04-16T02:30:46.363Z,15.13
2023-04-16T02:33:17.300Z,13.48
2023-04-16T02:35:57.476Z,13.43
2023-04-16T02:38:24.790Z,12.82
2023-04-16T02:43:44.703Z,17.25
2023-04-16T02:46:11.840Z,14.75
2023-04-16T02:48:39.559Z,14.77
2023-04-16T02:51:07.064Z,14.60
2023-04-16T02:53:34.516Z,13.65
2023-04-16T02:56:01.833Z,14.43
2023-04-16T02:58:28.996Z,14.00
2023-04-16T03:01:02.186Z,13.57
2023-04-16T03:03:31.829Z,13.70
2023-04-16T03:06:02.526Z,13.02
2023-04-16T03:08:30.999Z,14.05
2023-04-16T03:10:58.005Z,13.50
2023-04-16T03:13:25.195Z,11.77
2023-04-16T03:15:52.328Z,15.50
2023-04-16T03:18:21.558Z,11.95
2023-04-16T03:20:52.332Z,14.43
2023-04-16T03:23:19.662Z,13.93
2023-04-16T03:25:46.544Z,16.67
2023-04-16T03:28:15.986Z,14.27
2023-04-16T03:30:43.533Z,15.43
2023-04-16T03:33:10.460Z,14.55
2023-04-16T03:35:39.061Z,12.30
2023-04-16T03:38:06.168Z,13.05
2023-04-16T03:40:33.680Z,11.57
2023-04-16T03:43:02.343Z,13.75
2023-04-16T03:45:30.025Z,13.73
2023-04-16T03:47:57.293Z,12.30
2023-04-16T03:50:25.896Z,11.77
2023-04-16T03:52:54.478Z,14.93
2023-04-16T03:55:21.756Z,13.13
2023-04-16T03:57:48.756Z,13.60
2023-04-16T04:00:16.898Z,12.73
2023-04-16T04:03:04.626Z,16.25
2023-04-16T04:05:36.743Z,13.65
2023-04-16T04:08:06.444Z,13.90
2023-04-16T04:10:34.146Z,13.60
2023-04-16T04:13:06.714Z,15.80
2023-04-16T04:15:42.025Z,12.15
2023-04-16T04:18:19.029Z,13.88
2023-04-16T04:20:49.141Z,15.73
2023-04-16T04:23:20.581Z,12.73
2023-04-16T04:25:48.239Z,13.52
2023-04-16T04:28:16.143Z,13.48
2023-04-16T04:30:43.596Z,11.98
2023-04-16T04:33:11.327Z,14.27
2023-04-16T04:35:42.470Z,14.07
2023-04-16T04:38:09.622Z,15.18
2023-04-16T04:43:49.812Z,13.77
2023-04-16T04:46:27.573Z,16.85
2023-04-16T04:48:59.903Z,14.73
2023-04-16T04:51:27.953Z,18.65
2023-04-16T04:53:55.985Z,16.17
2023-04-16T04:56:27.478Z,14.10
2023-04-16T04:58:55.067Z,13.00
2023-04-16T05:01:26.572Z,14.48
2023-04-16T05:03:54.770Z,13.73
2023-04-16T05:06:25.764Z,16.15
2023-04-16T05:08:54.937Z,12.00
2023-04-16T05:11:21.996Z,12.57
2023-04-16T05:13:50.494Z,15.43
2023-04-16T05:16:17.426Z,12.88
2023-04-16T05:18:44.547Z,12.95
2023-04-16T05:21:11.710Z,13.35
2023-04-16T05:23:38.817Z,13.43
2023-04-16T05:26:05.834Z,14.38
2023-04-16T05:28:35.378Z,13.40
2023-04-16T05:31:03.680Z,13.48
2023-04-16T05:33:30.789Z,13.85
2023-04-16T05:35:57.884Z,14.38
2023-04-16T05:38:25.239Z,13.57
2023-04-16T05:40:52.904Z,13.63
2023-04-16T05:43:46.065Z,14.18
2023-04-16T05:46:19.054Z,13.25
2023-04-16T05:48:56.256Z,12.65
2023-04-16T05:51:26.836Z,13.30
2023-04-16T05:53:53.768Z,14.07
2023-04-16T05:56:20.835Z,16.45
2023-04-16T05:58:48.420Z,13.02
2023-04-16T06:01:15.357Z,13.20
2023-04-16T06:03:44.986Z,13.88
2023-04-16T06:06:15.776Z,13.15
2023-04-16T06:08:42.688Z,10.75
2023-04-16T06:11:10.125Z,15.77
2023-04-16T06:13:37.474Z,12.35
2023-04-16T06:16:05.265Z,13.40
2023-04-16T06:18:32.705Z,12.48
2023-04-16T06:21:01.055Z,14.02
2023-04-16T06:23:27.979Z,11.25
2023-04-16T06:25:55.791Z,12.23
2023-04-16T06:28:28.986Z,13.23
2023-04-16T06:31:06.316Z,13.05
2023-04-16T06:33:33.779Z,11.52
2023-04-16T06:36:06.564Z,13.35
2023-04-16T06:38:37.541Z,13.77
2023-04-16T06:41:04.975Z,14.13
2023-04-16T06:43:32.518Z,13.05
2023-04-16T06:45:59.625Z,11.20
2023-04-16T06:48:26.617Z,14.20
2023-04-16T06:50:55.997Z,13.23
2023-04-16T06:53:29.419Z,10.77
2023-04-16T06:55:56.574Z,11.77
2023-04-16T06:58:23.665Z,12.32
2023-04-16T07:00:50.775Z,12.80
2023-04-16T07:03:21.469Z,11.95
2023-04-16T07:05:51.037Z,11.10
2023-04-16T07:08:18.017Z,12.48
2023-04-16T07:10:51.299Z,10.35
2023-04-16T07:13:18.525Z,9.38
2023-04-16T07:15:48.147Z,11.70
2023-04-16T07:18:20.309Z,12.13
2023-04-16T07:20:48.434Z,14.27
2023-04-16T07:23:17.562Z,13.75
2023-04-16T07:25:47.212Z,11.73
2023-04-16T07:28:20.712Z,10.52
2023-04-16T07:30:48.505Z,11.93
2023-04-16T07:33:15.832Z,12.38
2023-04-16T07:35:44.039Z,11.00
2023-04-16T07:38:10.879Z,11.18
2023-04-16T07:40:37.824Z,12.88
2023-04-16T07:43:04.770Z,12.90
2023-04-16T07:45:33.736Z,12.18
2023-04-16T07:48:01.130Z,11.05
2023-04-16T07:50:28.048Z,12.32
2023-04-16T07:52:55.050Z,11.48
2023-04-16T07:55:22.275Z,12.80
2023-04-16T07:57:49.584Z,10.50
2023-04-16T08:00:16.967Z,13.82
2023-04-16T08:02:45.375Z,12.18
2023-04-16T08:05:13.434Z,12.27
2023-04-16T08:07:40.433Z,12.45
2023-04-16T08:10:08.938Z,10.70
2023-04-16T08:12:36.086Z,13.88
2023-04-16T08:15:03.455Z,10.20
2023-04-16T08:17:30.340Z,10.52
2023-04-16T08:19:58.631Z,12.75
2023-04-16T08:22:25.729Z,12.77
2023-04-16T08:24:52.851Z,9.82
2023-04-16T08:27:20.455Z,13.48
2023-04-16T08:29:48.145Z,12.70
2023-04-16T08:32:15.138Z,12.80
2023-04-16T08:34:42.698Z,10.30
2023-04-16T08:37:10.967Z,11.85
2023-04-16T08:39:37.965Z,11.13
2023-04-16T08:42:10.035Z,13.35
2023-04-16T08:44:44.037Z,13.38
2023-04-16T08:47:13.452Z,12.15
2023-04-16T08:49:44.935Z,11.00
2023-04-16T08:52:19.188Z,10.70
2023-04-16T08:54:57.258Z,11.38
2023-04-16T08:57:30.652Z,8.93
2023-04-16T08:59:58.615Z,11.43
2023-04-16T09:02:27.165Z,11.20
2023-04-16T09:05:22.075Z,11.32
2023-04-16T09:07:52.583Z,12.65
2023-04-16T09:10:20.750Z,11.35
2023-04-16T09:12:48.021Z,10.85
2023-04-16T09:15:14.888Z,10.60
2023-04-16T09:17:41.967Z,13.02
2023-04-16T09:20:10.254Z,12.85
2023-04-16T09:22:38.045Z,10.32
2023-04-16T09:25:07.950Z,15.23
2023-04-16T09:27:36.379Z,13.10
2023-04-16T09:30:19.984Z,10.65
2023-04-16T09:32:47.537Z,15.13
2023-04-16T09:35:14.851Z,16.15
2023-04-16T09:37:42.007Z,11.75
2023-04-16T09:40:11.623Z,12.52
2023-04-16T09:42:38.486Z,14.55
2023-04-16T09:45:07.449Z,13.48
2023-04-16T09:47:42.574Z,14.80
2023-04-16T09:50:17.786Z,12.27
2023-04-16T09:52:48.447Z,12.65
2023-04-16T09:55:16.924Z,13.43
2023-04-16T09:57:44.073Z,11.35
2023-04-16T10:00:12.539Z,12.68
2023-04-16T10:02:41.361Z,11.85
2023-04-16T10:05:09.585Z,12.52
2023-04-16T10:07:37.534Z,12.23
2023-04-16T10:10:05.991Z,12.30
2023-04-16T10:12:34.758Z,13.18
2023-04-16T10:15:02.131Z,12.90
2023-04-16T10:17:31.377Z,13.52
2023-04-16T10:19:59.724Z,14.07
2023-04-16T10:22:27.183Z,10.55
2023-04-16T10:24:56.021Z,13.77
2023-04-16T10:27:23.520Z,16.05
2023-04-16T10:29:52.281Z,13.63
2023-04-16T10:32:20.937Z,12.20
2023-04-16T10:34:48.255Z,15.82
2023-04-16T10:37:16.586Z,15.00
2023-04-16T10:39:43.917Z,12.20
2023-04-16T10:42:12.868Z,12.15
2023-04-16T10:44:43.483Z,12.23
2023-04-16T10:47:14.485Z,11.60
2023-04-16T10:49:42.443Z,13.57
2023-04-16T10:52:11.941Z,11.13
2023-04-16T10:54:40.182Z,12.65
2023-04-16T10:57:09.271Z,14.23
2023-04-16T10:59:37.889Z,10.48
2023-04-16T11:02:09.199Z,11.30
2023-04-16T11:04:40.329Z,13.00
2023-04-16T11:07:17.180Z,12.00
2023-04-16T11:10:00.500Z,10.82
2023-04-16T11:12:34.969Z,11.43
2023-04-16T11:15:04.077Z,11.60
2023-04-16T11:17:37.850Z,11.10
2023-04-16T11:20:18.878Z,12.63
2023-04-16T11:22:48.283Z,11.85
2023-04-16T11:25:21.901Z,10.52
2023-04-16T11:27:49.152Z,11.05
2023-04-16T11:30:18.246Z,12.93
2023-04-16T11:32:46.451Z,10.05
2023-04-16T11:35:18.355Z,12.45
2023-04-16T11:37:46.620Z,20.52
2023-04-16T11:40:14.056Z,13.15
2023-04-16T11:42:42.799Z,12.25
2023-04-16T11:45:12.423Z,12.00
2023-04-16T11:47:47.531Z,14.02
2023-04-16T11:50:24.514Z,15.48
2023-04-16T11:52:54.270Z,13.98
2023-04-16T11:55:22.300Z,13.43
2023-04-16T11:57:49.761Z,12.77
2023-04-16T12:00:21.111Z,12.48
2023-04-16T12:02:53.556Z,11.93
2023-04-16T12:05:31.554Z,13.13
2023-04-16T12:08:00.514Z,14.40
2023-04-16T12:10:27.710Z,15.18
2023-04-16T12:12:54.636Z,16.13
2023-04-16T12:15:21.870Z,13.27
2023-04-16T12:17:48.777Z,13.85
2023-04-16T12:20:16.281Z,12.63
2023-04-16T12:22:47.825Z,13.05
2023-04-16T12:25:17.445Z,12.50
2023-04-16T12:27:46.277Z,12.18
2023-04-16T12:30:14.712Z,18.08
2023-04-16T12:32:43.260Z,13.90
2023-04-16T12:35:11.268Z,14.15
2023-04-16T12:37:39.665Z,14.23
2023-04-16T12:40:09.183Z,18.75
2023-04-16T12:42:36.667Z,20.08
2023-04-16T12:45:05.222Z,16.75
2023-04-16T12:47:33.167Z,13.45
2023-04-16T12:50:00.261Z,14.18
2023-04-16T12:52:27.362Z,12.05
2023-04-16T12:54:55.236Z,10.60
2023-04-16T12:57:26.046Z,12.40
2023-04-16T12:59:53.264Z,13.18
2023-04-16T13:02:20.230Z,11.30
2023-04-16T13:07:39.742Z,14.55
2023-04-16T13:10:08.860Z,16.08
2023-04-16T13:12:37.610Z,14.18
2023-04-16T13:15:05.281Z,13.93
2023-04-16T13:17:32.565Z,15.30
2023-04-16T13:20:00.149Z,19.52
2023-04-16T13:22:27.150Z,13.57
2023-04-16T13:24:55.012Z,12.90
2023-04-16T13:27:23.171Z,14.73
2023-04-16T13:29:51.833Z,18.35
2023-04-16T13:32:19.117Z,20.58
2023-04-16T13:34:46.025Z,29.05
2023-04-16T13:37:13.216Z,17.50
2023-04-16T13:39:40.244Z,16.50
2023-04-16T13:42:07.610Z,15.55
2023-04-16T13:44:34.995Z,14.70
2023-04-16T13:47:03.327Z,13.23
2023-04-16T13:49:31.231Z,13.05
2023-04-16T13:51:59.263Z,15.65
2023-04-16T13:54:26.373Z,15.75
2023-04-16T13:56:53.394Z,14.93
2023-04-16T13:59:20.865Z,13.02
2023-04-16T14:01:48.224Z,13.98
2023-04-16T14:04:16.641Z,13.35
2023-04-16T14:06:44.014Z,12.13
2023-04-16T14:09:11.306Z,14.90
2023-04-16T14:11:38.342Z,12.88
2023-04-16T14:14:06.021Z,13.48
2023-04-16T14:16:35.553Z,13.63
2023-04-16T14:19:02.685Z,12.05
2023-04-16T14:21:31.337Z,13.20
2023-04-16T14:23:58.276Z,17.27
2023-04-16T14:26:25.377Z,12.25
2023-04-16T14:28:52.532Z,14.55
2023-04-16T14:31:20.157Z,17.65
2023-04-16T14:33:47.143Z,11.23
2023-04-16T14:36:14.238Z,12.65
2023-04-16T14:38:42.584Z,14.50
2023-04-16T14:44:00.804Z,12.68
2023-04-16T14:46:27.782Z,15.27
2023-04-16T14:48:54.629Z,12.93
2023-04-16T14:51:22.248Z,12.18
2023-04-16T14:53:50.609Z,15.38
2023-04-16T14:56:17.826Z,14.00
2023-04-16T14:58:44.859Z,13.85
2023-04-16T15:01:11.802Z,11.07
2023-04-16T15:03:39.219Z,15.73
2023-04-16T15:06:06.978Z,11.38
2023-04-16T15:08:35.031Z,11.80
2023-04-16T15:11:03.394Z,12.77
2023-04-16T15:13:30.395Z,11.40
2023-04-16T15:15:57.716Z,11.55
2023-04-16T15:18:24.561Z,13.13
2023-04-16T15:20:52.168Z,11.63
2023-04-16T15:23:19.115Z,12.73
2023-04-16T15:25:46.066Z,12.02
2023-04-16T15:28:14.669Z,12.50
2023-04-16T15:30:42.181Z,12.30
2023-04-16T15:33:09.400Z,14.07
2023-04-16T15:35:36.693Z,14.48
2023-04-16T15:38:03.725Z,14.93
2023-04-16T15:40:30.593Z,13.40
2023-04-16T15:42:58.256Z,13.07
2023-04-16T15:45:26.698Z,11.73
2023-04-16T15:47:55.100Z,14.27
2023-04-16T15:50:23.385Z,10.80
2023-04-16T15:52:50.507Z,11.55
2023-04-16T15:55:18.124Z,11.68
2023-04-16T15:57:45.142Z,12.10
2023-04-16T16:00:13.650Z,13.48
2023-04-16T16:02:43.920Z,16.42
2023-04-16T16:05:12.795Z,17.30
2023-04-16T16:07:40.040Z,14.60
2023-04-16T16:10:09.493Z,16.70
2023-04-16T16:12:37.399Z,36.88
2023-04-16T16:15:05.972Z,18.42
2023-04-16T16:17:33.806Z,15.30
2023-04-16T16:20:02.220Z,14.82
2023-04-16T16:22:29.410Z,14.27
2023-04-16T16:24:56.797Z,13.32
2023-04-16T16:27:24.258Z,16.17
2023-04-16T16:29:51.237Z,12.80
2023-04-16T16:32:18.140Z,12.45
2023-04-16T16:34:45.182Z,12.60
2023-04-16T16:37:13.609Z,10.98
2023-04-16T16:39:40.656Z,10.85
2023-04-16T16:42:08.005Z,12.40
2023-04-16T16:44:34.890Z,13.27
2023-04-16T16:47:02.488Z,12.73
2023-04-16T16:49:29.610Z,11.82
2023-04-16T16:51:56.727Z,11.57
2023-04-16T16:54:24.978Z,18.40
2023-04-16T16:56:52.856Z,39.10
2023-04-16T16:59:19.921Z,18.23
2023-04-16T17:01:46.874Z,18.50
2023-04-16T17:04:14.120Z,31.23
2023-04-16T17:06:41.256Z,38.65
2023-04-16T17:09:08.541Z,66.50
2023-04-16T17:11:36.935Z,93.18
2023-04-16T17:14:04.317Z,55.15
2023-04-16T17:16:31.258Z,75.35
2023-04-16T17:18:59.732Z,70.93
2023-04-16T17:21:26.612Z,38.22
2023-04-16T17:23:53.739Z,34.75
2023-04-16T17:26:20.721Z,25.13
2023-04-16T17:28:49.424Z,24.30
2023-04-16T17:31:17.086Z,24.25
2023-04-16T17:33:44.285Z,16.42
2023-04-16T17:36:11.175Z,16.55
2023-04-16T17:38:38.172Z,16.08
2023-04-16T17:41:05.272Z,12.07
2023-04-16T17:43:35.346Z,10.60
2023-04-16T17:46:03.840Z,10.93
2023-04-16T17:48:31.065Z,13.48
2023-04-16T17:50:57.913Z,12.63
2023-04-16T17:53:25.875Z,13.48
2023-04-16T17:55:54.585Z,12.02
2023-04-16T17:58:23.523Z,12.75
2023-04-16T18:00:50.393Z,10.15
2023-04-16T18:03:21.332Z,10.35
2023-04-16T18:05:49.109Z,11.85
2023-04-16T18:08:16.060Z,11.32
2023-04-16T18:10:42.985Z,10.18
2023-04-16T18:13:09.962Z,10.55
2023-04-16T18:15:37.245Z,14.45
2023-04-16T18:18:04.408Z,14.10
2023-04-16T18:20:32.694Z,19.38
2023-04-16T18:23:00.284Z,15.68
2023-04-16T18:25:34.630Z,12.70
2023-04-16T18:28:02.652Z,14.90
2023-04-16T18:30:29.584Z,16.27
2023-04-16T18:33:25.282Z,13.38
2023-04-16T18:35:45.069Z,16.58
2023-04-16T18:38:12.053Z,12.27
2023-04-16T18:40:39.370Z,13.00
2023-04-16T18:43:06.284Z,13.52
2023-04-16T18:45:34.478Z,13.85
2023-04-16T18:48:01.758Z,14.48
2023-04-16T18:50:28.888Z,13.68
2023-04-16T18:52:57.054Z,13.63
2023-04-16T18:55:24.379Z,15.48
2023-04-16T18:57:51.480Z,13.02
2023-04-16T19:00:18.960Z,12.25
2023-04-16T19:02:46.003Z,12.25
2023-04-16T19:05:13.174Z,14.70
2023-04-16T19:07:40.172Z,12.73
2023-04-16T19:10:09.977Z,10.45
2023-04-16T19:12:36.878Z,11.73
2023-04-16T19:15:04.409Z,10.63
2023-04-16T19:17:31.513Z,13.90
2023-04-16T19:19:58.770Z,12.48
2023-04-16T19:22:25.872Z,11.55
2023-04-16T19:24:52.964Z,11.80
2023-04-16T19:27:21.199Z,10.90
2023-04-16T19:29:48.323Z,13.55
2023-04-16T19:32:15.341Z,11.98
2023-04-16T19:34:42.190Z,12.18
2023-04-16T19:37:09.213Z,12.82
2023-04-16T19:39:36.579Z,10.77
2023-04-16T19:42:04.010Z,10.32
2023-04-16T19:44:32.361Z,10.43
2023-04-16T19:46:59.558Z,11.95
2023-04-16T19:49:34.235Z,10.65
2023-04-16T19:52:01.757Z,12.63
2023-04-16T19:54:29.075Z,13.05
2023-04-16T19:56:56.369Z,14.07
2023-04-16T19:59:23.408Z,10.82
2023-04-16T20:05:08.901Z,14.48
2023-04-16T20:07:35.959Z,12.77
2023-04-16T20:10:03.164Z,13.55
2023-04-16T20:12:30.249Z,15.65
2023-04-16T20:14:57.118Z,14.10
2023-04-16T20:17:25.653Z,14.32
2023-04-16T20:19:52.683Z,14.05
2023-04-16T20:22:19.776Z,13.88
2023-04-16T20:24:47.721Z,12.65
2023-04-16T20:27:15.527Z,12.02
2023-04-16T20:29:42.487Z,12.57
2023-04-16T20:32:09.833Z,15.80
2023-04-16T20:34:38.279Z,13.15
2023-04-16T20:37:05.260Z,11.52
2023-04-16T20:39:32.137Z,12.18
2023-04-16T20:41:59.325Z,12.27
2023-04-16T20:44:26.644Z,11.07
2023-04-16T20:46:54.136Z,11.98
2023-04-16T20:49:21.140Z,12.88
2023-04-16T20:51:49.480Z,11.00
2023-04-16T20:54:16.771Z,12.85
2023-04-16T20:56:43.670Z,11.50
2023-04-16T20:59:10.926Z,10.95
2023-04-16T21:01:38.124Z,13.32
2023-04-16T21:04:05.324Z,12.43
2023-04-16T21:06:32.891Z,11.43
2023-04-16T21:09:01.263Z,12.35
2023-04-16T21:11:28.694Z,11.35
2023-04-16T21:13:55.631Z,15.43
2023-04-16T21:16:22.514Z,11.63
2023-04-16T21:18:49.460Z,11.45
2023-04-16T21:21:16.613Z,11.23
2023-04-16T21:23:43.764Z,12.50
2023-04-16T21:26:12.037Z,12.13
2023-04-16T21:28:38.953Z,12.25
2023-04-16T21:31:05.987Z,14.20
2023-04-16T21:33:33.133Z,11.38
2023-04-16T21:36:00.226Z,10.88
2023-04-16T21:38:27.417Z,12.35
2023-04-16T21:41:00.965Z,12.80
2023-04-16T21:43:29.506Z,12.95
2023-04-16T21:45:56.444Z,14.85
2023-04-16T21:48:23.955Z,11.88
2023-04-16T21:50:55.587Z,15.27
2023-04-16T21:53:22.480Z,12.27
2023-04-16T21:55:49.555Z,12.10
2023-04-16T21:58:16.819Z,12.43
2023-04-16T22:00:45.252Z,13.48
2023-04-16T22:03:12.466Z,10.52
2023-04-16T22:05:39.753Z,12.70
2023-04-16T22:08:20.910Z,12.25
2023-04-16T22:10:51.524Z,11.27
2023-04-16T22:13:19.265Z,10.70
2023-04-16T22:15:47.507Z,13.57
2023-04-16T22:18:15.822Z,11.88
2023-04-16T22:20:42.903Z,14.00
2023-04-16T22:23:09.936Z,12.50
2023-04-16T22:25:36.930Z,13.02
2023-04-16T22:28:03.965Z,11.63
2023-04-16T22:30:30.933Z,11.23
2023-04-16T22:32:59.767Z,10.65
2023-04-16T22:35:26.903Z,10.48
2023-04-16T22:37:53.964Z,13.20
2023-04-16T22:40:20.855Z,10.75
2023-04-16T22:42:47.980Z,14.35
2023-04-16T22:45:15.283Z,13.20
2023-04-16T22:47:42.343Z,15.32
2023-04-16T22:50:11.274Z,13.70
2023-04-16T22:52:38.225Z,13.50
2023-04-16T22:55:06.320Z,12.07
2023-04-16T22:57:33.463Z,13.02
2023-04-16T23:00:00.531Z,12.60
2023-04-16T23:02:27.553Z,11.32
2023-04-16T23:04:59.425Z,11.57
2023-04-16T23:07:27.787Z,13.02
2023-04-16T23:09:54.826Z,11.32
2023-04-16T23:12:21.666Z,12.60
2023-04-16T23:14:48.594Z,12.73
2023-04-16T23:17:15.562Z,11.63
2023-04-16T23:19:42.506Z,12.63
2023-04-16T23:22:09.836Z,12.38
2023-04-16T23:24:38.414Z,10.77
2023-04-16T23:27:05.488Z,11.35
2023-04-16T23:29:32.423Z,11.70
2023-04-16T23:32:02.434Z,14.45
2023-04-16T23:34:29.351Z,11.82
2023-04-16T23:36:56.479Z,12.02
2023-04-16T23:39:24.024Z,12.93
2023-04-16T23:41:52.265Z,12.50
2023-04-16T23:44:19.683Z,13.48
2023-04-16T23:46:46.649Z,13.27
2023-04-16T23:49:13.649Z,14.52
2023-04-16T23:51:40.583Z,14.48
2023-04-16T23:54:07.616Z,11.82
2023-04-16T23:56:34.461Z,12.60
2023-04-16T23:59:02.886Z,11.32
